Terminal Aerodrome Forecast
Issued by NWS

Current Version | Previous Version | Graphics & Text | Print | Product List | Glossary On
Versions: 1 2 3 4 5 6 7 8 9 10 11 12 13 14 15 16 17 18 19 20 21 22 23 24 25 26 27
000
FTUS41 KRNK 220720 AAA
TAFLWB
TAF AMD
KLWB 220720Z 2207/2306 00000KT 3SM BR SCT001 OVC060
     FM221300 00000KT P6SM BKN080
     FM222100 17008KT P6SM SCT090
     FM230200 16005KT P6SM VCSH OVC040
     FM230500 16007KT 3SM SHRA OVC015=

USA.gov is the U.S. government's official web portal to all federal, state and local government web resources and services.